Time;durP1;ratioP1;P1;durP2;ratioP2;P2;SDS_P1;SDS_P2;PMS_P1;PMS_P2;Temp;Humidity;BMP_temperature;BMP_pressure;BME280_temperature;BME280_humidity;BME280_pressure;Samples;Min_cycle;Max_cycle;Signal;HPM_P1;HPM_P2
2022/05/24 00:01:50;;;;;;;;;;;21.20;62.20;;;;;;4938708;29;19918;-64
2022/05/24 00:04:15;;;;;;;;;;;21.10;63.00;;;;;;4939225;29;20439;-62
2022/05/24 00:06:41;;;;;;;;;;;21.20;62.70;;;;;;4938902;29;19915;-63
2022/05/24 00:09:06;;;;;;;;;;;21.20;62.60;;;;;;4938672;29;19910;-63
2022/05/24 00:11:33;;;;;;;;;;;21.30;63.20;;;;;;4938609;29;19915;-63
2022/05/24 00:13:58;;;;;;;;;;;21.30;63.30;;;;;;4938864;29;19911;-68
2022/05/24 00:16:24;;;;;;;;;;;21.20;63.10;;;;;;4938773;29;19917;-64
2022/05/24 00:18:49;;;;;;;;;;;21.30;63.50;;;;;;4938299;29;19919;-63
2022/05/24 00:21:15;;;;;;;;;;;21.30;63.50;;;;;;4938349;29;19911;-63
2022/05/24 00:23:40;;;;;;;;;;;21.20;64.10;;;;;;4938520;29;19915;-62
2022/05/24 00:26:07;;;;;;;;;;;21.20;64.40;;;;;;4938397;29;19911;-63
2022/05/24 00:28:33;;;;;;;;;;;21.30;64.60;;;;;;4938432;29;19917;-64
2022/05/24 00:30:59;;;;;;;;;;;21.20;65.00;;;;;;4938259;29;19935;-62
2022/05/24 00:33:28;;;;;;;;;;;21.30;65.20;;;;;;4938132;29;19942;-64
2022/05/24 00:35:55;;;;;;;;;;;21.20;65.90;;;;;;4937450;29;19911;-62
2022/05/24 00:38:25;;;;;;;;;;;21.00;66.30;;;;;;4938116;29;19963;-64
2022/05/24 00:40:57;;;;;;;;;;;21.00;67.00;;;;;;4920939;29;20065;-64
2022/05/24 00:43:26;;;;;;;;;;;21.00;66.00;;;;;;4937977;29;19976;-63
2022/05/24 00:45:53;;;;;;;;;;;21.00;66.50;;;;;;4937731;29;20039;-61
2022/05/24 00:48:22;;;;;;;;;;;21.10;66.30;;;;;;4938100;29;19911;-63
2022/05/24 00:50:49;;;;;;;;;;;21.10;66.60;;;;;;4937972;29;19915;-63
2022/05/24 00:53:21;;;;;;;;;;;21.10;66.60;;;;;;4938017;29;20347;-63
2022/05/24 00:55:53;;;;;;;;;;;21.00;66.70;;;;;;4938134;29;19910;-61
2022/05/24 00:58:42;;;;;;;;;;;21.20;66.30;;;;;;4937712;29;19915;-62
2022/05/24 01:01:25;;;;;;;;;;;21.30;66.20;;;;;;4920558;29;20294;-63
2022/05/24 01:03:51;;;;;;;;;;;21.30;66.10;;;;;;4937657;29;20367;-63
2022/05/24 01:06:17;;;;;;;;;;;21.30;66.50;;;;;;4937770;29;19918;-63
2022/05/24 01:08:43;;;;;;;;;;;21.30;66.10;;;;;;4937545;29;19918;-63
2022/05/24 01:11:10;;;;;;;;;;;21.30;67.00;;;;;;4920267;29;20394;-63
2022/05/24 01:13:35;;;;;;;;;;;21.20;67.00;;;;;;4937756;29;20352;-62
2022/05/24 01:16:01;;;;;;;;;;;21.10;67.80;;;;;;4937547;29;19921;-65
2022/05/24 01:18:26;;;;;;;;;;;21.10;68.00;;;;;;4937379;29;19923;-62
2022/05/24 01:20:55;;;;;;;;;;;21.20;68.00;;;;;;4937176;29;19994;-66
2022/05/24 01:23:36;;;;;;;;;;;21.00;68.50;;;;;;4920499;29;19941;-64
2022/05/24 01:26:13;;;;;;;;;;;21.00;68.80;;;;;;4937269;29;20394;-66
2022/05/24 01:28:46;;;;;;;;;;;21.00;69.10;;;;;;4937378;29;20355;-62
2022/05/24 01:31:11;;;;;;;;;;;21.10;67.80;;;;;;4937012;29;19911;-62
2022/05/24 01:36:22;;;;;;;;;;;21.10;68.90;;;;;;4937286;29;19965;-63
2022/05/24 01:38:53;;;;;;;;;;;21.20;68.80;;;;;;4936956;29;19926;-63
2022/05/24 01:41:25;;;;;;;;;;;21.20;69.70;;;;;;4937213;29;20326;-62
2022/05/24 01:43:51;;;;;;;;;;;21.20;69.10;;;;;;4937303;29;19915;-63
2022/05/24 01:46:19;;;;;;;;;;;21.20;68.90;;;;;;4936621;29;19941;-63
2022/05/24 01:48:47;;;;;;;;;;;21.10;69.20;;;;;;4936811;29;19911;-61
2022/05/24 01:51:15;;;;;;;;;;;21.20;68.70;;;;;;4936802;29;20283;-63
2022/05/24 01:53:43;;;;;;;;;;;21.30;68.70;;;;;;4937036;29;20386;-62
2022/05/24 01:56:12;;;;;;;;;;;21.30;68.70;;;;;;4936852;29;19918;-62
2022/05/24 01:58:38;;;;;;;;;;;21.30;68.80;;;;;;4936570;29;19922;-62
2022/05/24 02:01:05;;;;;;;;;;;21.30;68.60;;;;;;4936661;29;19918;-64
2022/05/24 02:03:31;;;;;;;;;;;21.30;69.00;;;;;;4936794;29;19915;-62
2022/05/24 02:05:58;;;;;;;;;;;21.30;69.10;;;;;;4936603;29;19911;-63
2022/05/24 02:08:24;;;;;;;;;;;21.20;69.50;;;;;;4936938;29;19911;-63
2022/05/24 02:10:58;;;;;;;;;;;21.10;69.90;;;;;;4936543;29;20286;-63
2022/05/24 02:13:30;;;;;;;;;;;21.10;70.50;;;;;;4936536;29;20347;-64
2022/05/24 02:15:58;;;;;;;;;;;21.10;70.40;;;;;;4936882;29;19917;-62
2022/05/24 02:18:25;;;;;;;;;;;21.00;70.80;;;;;;4936502;29;19969;-65
2022/05/24 02:20:50;;;;;;;;;;;21.00;70.40;;;;;;4936887;29;20282;-62
2022/05/24 02:23:17;;;;;;;;;;;21.00;70.70;;;;;;4936817;29;20002;-64
2022/05/24 02:25:44;;;;;;;;;;;21.00;71.10;;;;;;4936409;29;19975;-62
2022/05/24 02:28:10;;;;;;;;;;;21.00;71.10;;;;;;4936429;29;20339;-63
2022/05/24 02:30:38;;;;;;;;;;;20.90;70.90;;;;;;4936644;29;20267;-63
2022/05/24 02:33:04;;;;;;;;;;;21.10;70.50;;;;;;4936421;29;19911;-63
2022/05/24 02:35:29;;;;;;;;;;;21.10;70.40;;;;;;4936696;29;19918;-62
2022/05/24 02:37:55;;;;;;;;;;;21.10;70.40;;;;;;4936531;29;19911;-63
2022/05/24 02:43:04;;;;;;;;;;;21.00;71.50;;;;;;4936170;29;19968;-61
2022/05/24 02:45:30;;;;;;;;;;;20.90;71.70;;;;;;4936257;29;19919;-63
2022/05/24 02:47:56;;;;;;;;;;;20.90;71.80;;;;;;4936600;29;19918;-63
2022/05/24 02:50:21;;;;;;;;;;;20.80;72.10;;;;;;4936373;29;20013;-63
2022/05/24 02:52:47;;;;;;;;;;;20.80;72.10;;;;;;4936000;29;19910;-63
2022/05/24 02:55:13;;;;;;;;;;;20.80;72.40;;;;;;4936272;29;20389;-63
2022/05/24 02:57:39;;;;;;;;;;;20.80;72.10;;;;;;4919843;29;20355;-62
2022/05/24 03:00:06;;;;;;;;;;;20.80;72.30;;;;;;4939706;29;19975;-63
2022/05/24 03:02:31;;;;;;;;;;;20.70;72.70;;;;;;4940015;29;20331;-62
2022/05/24 03:04:59;;;;;;;;;;;20.60;73.00;;;;;;4939962;29;19962;-64
2022/05/24 03:10:09;;;;;;;;;;;20.60;73.30;;;;;;4939975;29;20327;-62
2022/05/24 03:15:18;;;;;;;;;;;20.70;73.00;;;;;;4939787;29;20270;-62
2022/05/24 03:17:44;;;;;;;;;;;20.70;72.90;;;;;;4939761;29;19910;-63
2022/05/24 03:20:09;;;;;;;;;;;20.70;72.90;;;;;;4939628;29;20013;-63
2022/05/24 03:22:35;;;;;;;;;;;20.70;72.80;;;;;;4939510;29;19975;-63
2022/05/24 03:25:01;;;;;;;;;;;20.70;72.60;;;;;;4922489;29;19915;-64
2022/05/24 03:27:26;;;;;;;;;;;20.70;73.00;;;;;;4939437;29;19919;-62
2022/05/24 03:29:52;;;;;;;;;;;20.60;73.40;;;;;;4939464;29;19911;-62
2022/05/24 03:32:18;;;;;;;;;;;20.50;73.70;;;;;;4939348;29;19959;-64
2022/05/24 03:34:44;;;;;;;;;;;20.40;74.30;;;;;;4939377;29;19910;-63
2022/05/24 03:37:09;;;;;;;;;;;20.50;74.30;;;;;;4939231;29;19910;-65
2022/05/24 03:39:35;;;;;;;;;;;20.50;74.00;;;;;;4939281;29;19918;-63
2022/05/24 03:42:01;;;;;;;;;;;20.50;74.30;;;;;;4939247;29;19922;-63
2022/05/24 03:44:27;;;;;;;;;;;20.50;74.20;;;;;;4939050;29;19961;-62
2022/05/24 03:46:53;;;;;;;;;;;20.50;74.00;;;;;;4939088;29;19918;-62
2022/05/24 03:49:19;;;;;;;;;;;20.60;73.60;;;;;;4939230;29;19918;-62
2022/05/24 03:51:45;;;;;;;;;;;20.60;73.50;;;;;;4939232;29;20383;-63
2022/05/24 03:54:11;;;;;;;;;;;20.60;73.60;;;;;;4939317;29;19968;-64
2022/05/24 03:56:37;;;;;;;;;;;20.70;73.40;;;;;;4939001;29;20355;-63
2022/05/24 03:59:03;;;;;;;;;;;20.70;73.30;;;;;;4939348;29;20378;-62
2022/05/24 04:01:28;;;;;;;;;;;20.70;73.90;;;;;;4921841;29;20017;-62
2022/05/24 04:03:54;;;;;;;;;;;20.70;73.30;;;;;;4939031;29;20392;-63
2022/05/24 04:06:20;;;;;;;;;;;20.70;73.80;;;;;;4938579;29;19911;-62
2022/05/24 04:08:45;;;;;;;;;;;20.70;73.60;;;;;;4938224;29;20016;-63
2022/05/24 04:11:11;;;;;;;;;;;20.70;73.70;;;;;;4938078;29;20006;-63
2022/05/24 04:13:37;;;;;;;;;;;20.60;74.50;;;;;;4938731;29;19915;-63
2022/05/24 04:16:03;;;;;;;;;;;20.60;74.30;;;;;;4938549;29;20440;-63
2022/05/24 04:18:29;;;;;;;;;;;20.60;74.80;;;;;;4938543;29;19925;-62
2022/05/24 04:20:55;;;;;;;;;;;20.50;74.90;;;;;;4938357;29;20009;-64
2022/05/24 04:23:21;;;;;;;;;;;20.50;75.20;;;;;;4938408;29;19973;-63
2022/05/24 04:25:47;;;;;;;;;;;20.50;75.10;;;;;;4938467;29;19926;-62
2022/05/24 04:28:13;;;;;;;;;;;20.50;75.30;;;;;;4938435;29;19914;-63
2022/05/24 04:30:38;;;;;;;;;;;20.60;75.10;;;;;;4938305;29;20370;-62
2022/05/24 04:33:04;;;;;;;;;;;20.60;75.60;;;;;;4938484;29;19922;-64
2022/05/24 04:35:30;;;;;;;;;;;20.60;75.70;;;;;;4938292;29;20390;-63
2022/05/24 04:37:56;;;;;;;;;;;20.60;75.80;;;;;;4938572;29;19915;-64
2022/05/24 04:42:18;;;;;;;;;;;20.60;76.10;;;;;;4938096;29;19918;-63
2022/05/24 04:43:07;;;;;;;;;;;20.60;76.30;;;;;;4938216;29;19969;-63
2022/05/24 04:45:32;;;;;;;;;;;20.60;76.40;;;;;;4937813;29;19946;-64
2022/05/24 04:47:58;;;;;;;;;;;20.60;76.30;;;;;;4938200;29;19917;-63
2022/05/24 04:50:23;;;;;;;;;;;20.70;76.50;;;;;;4938213;29;19917;-63
2022/05/24 04:52:49;;;;;;;;;;;20.60;76.70;;;;;;4938055;29;19911;-62
2022/05/24 04:55:14;;;;;;;;;;;20.60;77.20;;;;;;4937748;29;20283;-63
2022/05/24 04:57:40;;;;;;;;;;;20.60;77.30;;;;;;4937891;29;19921;-64
2022/05/24 05:00:13;;;;;;;;;;;20.60;77.00;;;;;;4937872;29;20359;-62
2022/05/24 05:02:39;;;;;;;;;;;20.70;76.10;;;;;;4937574;29;19918;-61
2022/05/24 05:05:05;;;;;;;;;;;20.80;76.70;;;;;;4937450;29;19911;-61
2022/05/24 05:07:31;;;;;;;;;;;20.80;76.20;;;;;;4937549;29;19915;-63
2022/05/24 05:09:56;;;;;;;;;;;20.90;76.00;;;;;;4937652;29;19911;-62
2022/05/24 05:12:25;;;;;;;;;;;21.00;75.40;;;;;;4937523;29;19998;-64
2022/05/24 05:14:50;;;;;;;;;;;21.10;75.30;;;;;;4937464;29;20290;-65
2022/05/24 05:17:17;;;;;;;;;;;21.20;74.90;;;;;;4937409;29;19921;-65
2022/05/24 05:19:42;;;;;;;;;;;21.20;74.20;;;;;;4937132;29;19923;-63
2022/05/24 05:22:08;;;;;;;;;;;21.30;74.00;;;;;;4937140;29;19958;-63
2022/05/24 05:24:34;;;;;;;;;;;21.60;72.90;;;;;;4936483;29;19957;-63
2022/05/24 05:27:01;;;;;;;;;;;22.00;72.40;;;;;;4937314;29;20275;-62
2022/05/24 05:32:16;;;;;;;;;;;22.50;70.70;;;;;;4937080;29;19969;-68
2022/05/24 05:34:41;;;;;;;;;;;22.70;70.00;;;;;;4937059;29;19930;-63
2022/05/24 05:37:07;;;;;;;;;;;22.80;69.30;;;;;;4944470;29;19914;-62
2022/05/24 05:39:34;;;;;;;;;;;23.00;68.40;;;;;;4945605;29;20287;-63
2022/05/24 05:42:01;;;;;;;;;;;23.10;66.40;;;;;;4944632;29;19922;-64
2022/05/24 05:44:28;;;;;;;;;;;23.60;65.60;;;;;;4949838;29;20355;-62
2022/05/24 05:46:53;;;;;;;;;;;24.00;63.90;;;;;;4955806;29;19973;-60
2022/05/24 05:49:19;;;;;;;;;;;24.40;61.10;;;;;;4955873;29;19911;-60
2022/05/24 05:51:45;;;;;;;;;;;24.70;59.10;;;;;;4946821;29;20013;-64
2022/05/24 05:54:10;;;;;;;;;;;24.90;59.00;;;;;;4948659;29;20009;-64
2022/05/24 05:56:36;;;;;;;;;;;25.10;58.50;;;;;;4953844;29;19956;-65
2022/05/24 05:59:02;;;;;;;;;;;25.20;57.90;;;;;;4954594;29;19929;-63
2022/05/24 06:01:31;;;;;;;;;;;25.30;57.70;;;;;;4946036;29;19915;-64
2022/05/24 06:03:57;;;;;;;;;;;25.40;57.80;;;;;;4936352;29;19910;-61
2022/05/24 06:06:24;;;;;;;;;;;25.40;57.00;;;;;;4936665;29;20001;-63
2022/05/24 06:08:50;;;;;;;;;;;25.60;56.70;;;;;;4936561;29;19915;-64
2022/05/24 06:11:15;;;;;;;;;;;25.80;56.40;;;;;;4936388;29;20406;-64
2022/05/24 06:13:41;;;;;;;;;;;25.90;55.60;;;;;;4936396;29;20001;-62
2022/05/24 06:16:08;;;;;;;;;;;25.90;55.40;;;;;;4936360;29;19918;-62
2022/05/24 06:18:33;;;;;;;;;;;26.00;55.30;;;;;;4936402;29;19915;-61
2022/05/24 06:20:59;;;;;;;;;;;26.20;54.80;;;;;;4936041;29;20450;-65
2022/05/24 06:23:24;;;;;;;;;;;26.20;54.60;;;;;;4936399;29;19918;-65
2022/05/24 06:25:51;;;;;;;;;;;26.20;54.40;;;;;;4936786;29;19966;-61
2022/05/24 06:28:17;;;;;;;;;;;26.30;53.80;;;;;;4936225;29;19914;-61
2022/05/24 06:30:43;;;;;;;;;;;26.10;54.40;;;;;;4936329;29;19911;-62
2022/05/24 06:33:08;;;;;;;;;;;26.20;54.20;;;;;;4937761;29;19911;-62
2022/05/24 06:35:35;;;;;;;;;;;26.30;54.40;;;;;;4943883;29;19914;-63
2022/05/24 06:38:01;;;;;;;;;;;26.30;53.80;;;;;;4939377;29;19910;-67
2022/05/24 06:40:26;;;;;;;;;;;26.30;53.60;;;;;;4939836;29;20336;-62
2022/05/24 06:42:52;;;;;;;;;;;26.20;54.10;;;;;;4946329;29;19918;-68
2022/05/24 06:45:17;;;;;;;;;;;26.40;54.30;;;;;;4939805;29;20002;-59
2022/05/24 06:47:43;;;;;;;;;;;26.60;53.70;;;;;;4939997;29;19922;-59
2022/05/24 06:50:09;;;;;;;;;;;26.80;53.80;;;;;;4939977;29;19934;-61
2022/05/24 06:52:35;;;;;;;;;;;27.00;53.10;;;;;;4939755;29;19911;-59
2022/05/24 06:55:00;;;;;;;;;;;27.00;52.90;;;;;;4939946;29;19915;-59
2022/05/24 06:57:26;;;;;;;;;;;27.10;53.00;;;;;;4939753;29;19910;-60
2022/05/24 07:02:36;;;;;;;;;;;27.30;52.30;;;;;;4939360;29;19918;-61
2022/05/24 07:05:02;;;;;;;;;;;27.30;52.20;;;;;;4939257;29;19915;-63
2022/05/24 07:07:28;;;;;;;;;;;27.20;52.10;;;;;;4939692;29;19918;-60
2022/05/24 07:09:54;;;;;;;;;;;27.10;52.60;;;;;;4922439;29;19915;-61
2022/05/24 07:12:20;;;;;;;;;;;27.10;52.50;;;;;;4939405;29;20390;-60
2022/05/24 07:14:45;;;;;;;;;;;27.00;52.70;;;;;;4939334;29;20212;-59
2022/05/24 07:17:11;;;;;;;;;;;27.00;52.50;;;;;;4939544;29;19915;-61
2022/05/24 07:19:38;;;;;;;;;;;27.10;52.20;;;;;;4939441;29;20381;-61
2022/05/24 07:22:07;;;;;;;;;;;27.10;52.30;;;;;;4939427;29;19994;-60
2022/05/24 07:24:33;;;;;;;;;;;27.10;52.30;;;;;;4939364;29;20274;-61
2022/05/24 07:26:59;;;;;;;;;;;27.10;52.20;;;;;;4939714;29;19914;-60
2022/05/24 07:29:25;;;;;;;;;;;27.10;52.30;;;;;;4939112;29;19910;-60
2022/05/24 07:31:50;;;;;;;;;;;26.90;52.00;;;;;;4939170;29;19911;-61
2022/05/24 07:34:16;;;;;;;;;;;26.90;52.30;;;;;;4939240;29;20489;-59
2022/05/24 07:36:42;;;;;;;;;;;27.00;52.30;;;;;;4939346;29;19911;-61
2022/05/24 07:39:07;;;;;;;;;;;27.20;51.90;;;;;;4939396;29;19926;-62
2022/05/24 07:47:03;;;;;;;;;;;26.90;51.80;;;;;;4941651;29;19938;-61
2022/05/24 07:49:29;;;;;;;;;;;26.80;52.20;;;;;;4941716;29;20282;-61
2022/05/24 07:51:54;;;;;;;;;;;26.70;52.30;;;;;;4940358;29;19999;-59
2022/05/24 07:54:20;;;;;;;;;;;26.80;52.40;;;;;;4941685;29;19954;-59
2022/05/24 07:56:45;;;;;;;;;;;27.00;52.30;;;;;;4940777;29;19918;-62
2022/05/24 07:59:11;;;;;;;;;;;27.10;51.80;;;;;;4938837;29;19923;-62
2022/05/24 08:01:36;;;;;;;;;;;27.20;51.30;;;;;;4938743;29;19918;-60
2022/05/24 08:04:03;;;;;;;;;;;27.30;50.60;;;;;;4938657;29;19918;-60
2022/05/24 08:06:28;;;;;;;;;;;27.20;51.00;;;;;;4938432;29;19911;-61
2022/05/24 08:08:54;;;;;;;;;;;27.30;50.60;;;;;;4938513;29;19917;-61
2022/05/24 08:11:19;;;;;;;;;;;27.20;50.60;;;;;;4938571;29;19946;-60
2022/05/24 08:13:45;;;;;;;;;;;27.20;50.80;;;;;;4938514;29;19911;-60
2022/05/24 08:16:10;;;;;;;;;;;27.20;50.50;;;;;;4938146;29;19957;-60
2022/05/24 08:18:36;;;;;;;;;;;27.10;50.40;;;;;;4938456;29;19971;-58
2022/05/24 08:21:02;;;;;;;;;;;26.90;50.50;;;;;;4938442;29;20371;-60
2022/05/24 08:23:28;;;;;;;;;;;26.90;50.70;;;;;;4921292;29;19914;-61
2022/05/24 08:25:54;;;;;;;;;;;27.00;50.10;;;;;;4920929;29;20427;-59
2022/05/24 08:28:19;;;;;;;;;;;27.00;50.40;;;;;;4938341;29;19958;-60
2022/05/24 08:30:45;;;;;;;;;;;27.20;50.40;;;;;;4938206;29;19974;-61
2022/05/24 08:33:12;;;;;;;;;;;27.30;49.90;;;;;;4938168;29;19977;-62
2022/05/24 08:35:38;;;;;;;;;;;27.40;49.20;;;;;;4938056;29;19911;-60
2022/05/24 08:38:05;;;;;;;;;;;27.50;49.40;;;;;;4938037;29;19918;-61
2022/05/24 08:40:31;;;;;;;;;;;27.50;49.00;;;;;;4937943;29;20060;-59
2022/05/24 08:43:19;;;;;;;;;;;27.60;49.50;;;;;;4937925;29;19964;-60
2022/05/24 08:48:44;;;;;;;;;;;27.70;49.30;;;;;;4938404;29;20362;-61
2022/05/24 08:51:18;;;;;;;;;;;27.60;48.50;;;;;;4937706;29;19918;-60
2022/05/24 08:53:50;;;;;;;;;;;27.50;49.30;;;;;;4937248;29;20002;-61
2022/05/24 08:56:21;;;;;;;;;;;27.60;49.10;;;;;;4936964;29;19911;-61
2022/05/24 08:58:59;;;;;;;;;;;27.60;48.70;;;;;;4937475;29;19966;-60
2022/05/24 09:01:27;;;;;;;;;;;27.70;48.60;;;;;;4937454;29;20034;-61
2022/05/24 09:03:53;;;;;;;;;;;27.50;48.00;;;;;;4937361;29;20359;-63
2022/05/24 09:06:34;;;;;;;;;;;27.40;48.20;;;;;;4937407;29;19918;-60
2022/05/24 09:09:08;;;;;;;;;;;27.50;48.70;;;;;;4937422;29;19946;-61
2022/05/24 09:11:45;;;;;;;;;;;27.30;48.40;;;;;;4937295;29;19911;-59
2022/05/24 09:14:27;;;;;;;;;;;27.20;49.60;;;;;;4937586;29;19918;-61
2022/05/24 09:17:04;;;;;;;;;;;27.20;49.50;;;;;;4937124;29;19923;-61
2022/05/24 09:19:34;;;;;;;;;;;27.30;49.90;;;;;;4936979;29;20007;-60
2022/05/24 09:22:03;;;;;;;;;;;27.30;48.60;;;;;;4937312;29;19911;-61
2022/05/24 09:24:46;;;;;;;;;;;27.20;49.30;;;;;;4937127;29;20363;-61
2022/05/24 09:27:11;;;;;;;;;;;27.20;49.40;;;;;;4937320;29;19973;-61
2022/05/24 09:29:58;;;;;;;;;;;27.20;49.80;;;;;;4936902;29;19958;-61
2022/05/24 09:32:30;;;;;;;;;;;27.20;50.20;;;;;;4936997;29;19950;-61
2022/05/24 09:35:00;;;;;;;;;;;27.20;50.10;;;;;;4937113;29;19961;-63
2022/05/24 09:37:27;;;;;;;;;;;27.30;50.10;;;;;;4936721;29;19911;-63
2022/05/24 09:40:19;;;;;;;;;;;27.30;50.10;;;;;;4937438;29;20017;-61
2022/05/24 09:42:45;;;;;;;;;;;27.30;50.10;;;;;;4929954;29;19917;-63
2022/05/24 09:45:15;;;;;;;;;;;27.30;50.00;;;;;;4936574;29;20316;-65
2022/05/24 09:47:44;;;;;;;;;;;27.30;48.20;;;;;;4936512;29;20359;-66
2022/05/24 09:50:19;;;;;;;;;;;27.30;49.20;;;;;;4937111;29;19915;-64
2022/05/24 09:53:05;;;;;;;;;;;27.20;47.60;;;;;;4936872;29;19994;-62
2022/05/24 09:55:39;;;;;;;;;;;27.20;47.70;;;;;;4935934;29;19921;-64
2022/05/24 09:58:17;;;;;;;;;;;27.30;47.30;;;;;;4936534;29;19911;-62
2022/05/24 10:00:59;;;;;;;;;;;27.30;48.00;;;;;;4936321;29;19942;-62
2022/05/24 10:03:27;;;;;;;;;;;27.30;47.70;;;;;;4936953;29;20363;-68
2022/05/24 10:05:53;;;;;;;;;;;27.30;46.90;;;;;;4936539;29;19953;-63
2022/05/24 10:08:19;;;;;;;;;;;27.30;47.30;;;;;;4936427;29;19994;-63
2022/05/24 10:10:47;;;;;;;;;;;27.30;47.30;;;;;;4936225;29;19955;-63
2022/05/24 10:13:34;;;;;;;;;;;27.30;47.80;;;;;;4936507;29;19953;-62
2022/05/24 10:16:08;;;;;;;;;;;27.30;49.10;;;;;;4936620;29;19911;-62
2022/05/24 10:18:34;;;;;;;;;;;27.40;48.80;;;;;;4936343;29;19922;-63
2022/05/24 10:21:13;;;;;;;;;;;27.40;48.10;;;;;;4935928;29;19959;-61
2022/05/24 10:23:41;;;;;;;;;;;27.40;47.90;;;;;;4936111;29;20018;-61
2022/05/24 10:26:26;;;;;;;;;;;27.40;48.50;;;;;;4936191;29;19911;-63
2022/05/24 10:28:57;;;;;;;;;;;27.40;49.30;;;;;;4936220;29;19915;-63
2022/05/24 10:31:36;;;;;;;;;;;27.20;49.60;;;;;;4936055;29;19917;-62
2022/05/24 10:40:13;;;;;;;;;;;27.20;49.60;;;;;;4936267;29;19954;-65
2022/05/24 10:42:43;;;;;;;;;;;27.20;51.50;;;;;;4913670;29;19918;-64
2022/05/24 10:45:13;;;;;;;;;;;27.00;52.90;;;;;;4936254;29;19930;-66
2022/05/24 10:47:48;;;;;;;;;;;27.00;53.90;;;;;;4935965;29;20055;-60
2022/05/24 10:50:18;;;;;;;;;;;27.00;54.50;;;;;;4935954;29;20001;-63
2022/05/24 10:52:54;;;;;;;;;;;27.00;54.90;;;;;;4934810;29;19910;-75
2022/05/24 10:55:25;;;;;;;;;;;27.00;55.30;;;;;;4935983;29;19911;-68
2022/05/24 10:57:54;;;;;;;;;;;27.10;55.60;;;;;;4935578;29;19915;-62
2022/05/24 11:00:23;;;;;;;;;;;27.10;56.40;;;;;;4935604;29;20005;-65
2022/05/24 11:02:57;;;;;;;;;;;27.10;55.90;;;;;;4935469;29;20049;-70
2022/05/24 11:05:41;;;;;;;;;;;27.20;56.10;;;;;;4935767;29;19917;-66
2022/05/24 11:08:22;;;;;;;;;;;27.20;55.50;;;;;;4935556;29;19911;-60
2022/05/24 11:10:48;;;;;;;;;;;27.20;55.80;;;;;;4935573;29;19910;-62
2022/05/24 11:13:22;;;;;;;;;;;27.00;55.50;;;;;;4935473;29;19918;-63
2022/05/24 11:16:03;;;;;;;;;;;27.00;54.70;;;;;;4935716;29;19911;-63
2022/05/24 11:18:28;;;;;;;;;;;27.00;55.20;;;;;;4935616;29;20367;-62
2022/05/24 11:21:01;;;;;;;;;;;27.00;55.10;;;;;;4938272;29;19927;-67
2022/05/24 11:23:34;;;;;;;;;;;27.10;54.80;;;;;;4939070;29;19954;-65
2022/05/24 11:26:18;;;;;;;;;;;27.20;54.70;;;;;;4938435;29;19950;-62
2022/05/24 11:28:47;;;;;;;;;;;27.20;54.60;;;;;;4938648;29;19911;-67
2022/05/24 11:31:35;;;;;;;;;;;27.30;54.30;;;;;;4938393;29;20381;-62
2022/05/24 11:34:03;;;;;;;;;;;27.30;54.00;;;;;;4938343;29;19911;-61
2022/05/24 11:36:31;;;;;;;;;;;27.30;54.00;;;;;;4938742;29;19970;-63
2022/05/24 11:39:03;;;;;;;;;;;27.20;53.80;;;;;;4939729;29;19973;-62
2022/05/24 11:41:31;;;;;;;;;;;27.20;54.10;;;;;;4940730;29;19915;-63
2022/05/24 11:43:58;;;;;;;;;;;27.20;53.80;;;;;;4940153;29;19934;-70
2022/05/24 11:46:24;;;;;;;;;;;27.20;53.80;;;;;;4940401;29;19930;-62
2022/05/24 11:48:51;;;;;;;;;;;27.20;53.80;;;;;;4940667;29;19911;-64
2022/05/24 11:51:36;;;;;;;;;;;27.30;53.30;;;;;;4939276;29;20290;-69
2022/05/24 11:54:03;;;;;;;;;;;27.30;52.90;;;;;;4940907;29;20400;-67
2022/05/24 11:56:29;;;;;;;;;;;27.30;52.70;;;;;;4937899;29;20370;-73
2022/05/24 11:58:59;;;;;;;;;;;27.30;52.90;;;;;;4940499;29;19954;-83
2022/05/24 12:01:52;;;;;;;;;;;27.30;52.50;;;;;;4937941;29;19915;-78
2022/05/24 12:09:55;;;;;;;;;;;27.40;51.70;;;;;;4937833;29;19918;-63
2022/05/24 12:12:28;;;;;;;;;;;27.50;51.70;;;;;;4937790;29;20006;-61
2022/05/24 12:15:06;;;;;;;;;;;27.50;50.20;;;;;;4938020;29;19911;-63
2022/05/24 12:17:32;;;;;;;;;;;27.40;50.90;;;;;;4937944;29;19915;-61
2022/05/24 12:19:58;;;;;;;;;;;27.40;49.90;;;;;;4937234;29;20431;-63
2022/05/24 12:22:27;;;;;;;;;;;27.30;50.90;;;;;;4937568;29;19911;-78
2022/05/24 12:24:54;;;;;;;;;;;27.30;51.00;;;;;;4937483;29;19911;-61
2022/05/24 12:27:28;;;;;;;;;;;27.30;50.30;;;;;;4940394;29;20006;-61
2022/05/24 12:29:57;;;;;;;;;;;27.30;50.60;;;;;;4937013;29;19926;-62
2022/05/24 12:32:23;;;;;;;;;;;27.20;51.00;;;;;;4937453;29;19953;-63
2022/05/24 12:34:49;;;;;;;;;;;27.30;51.40;;;;;;4942367;29;20375;-64
2022/05/24 12:37:30;;;;;;;;;;;27.20;50.80;;;;;;4937733;29;19911;-62
2022/05/24 12:40:06;;;;;;;;;;;27.30;51.30;;;;;;4937146;29;19929;-65
2022/05/24 12:42:31;;;;;;;;;;;27.30;49.00;;;;;;4942321;29;19911;-62
2022/05/24 12:45:00;;;;;;;;;;;27.20;50.00;;;;;;4937834;29;20320;-61
2022/05/24 12:47:26;;;;;;;;;;;27.20;49.80;;;;;;4937933;29;19915;-61
2022/05/24 12:49:56;;;;;;;;;;;27.20;50.30;;;;;;4938489;29;20013;-62
2022/05/24 12:52:30;;;;;;;;;;;27.30;50.30;;;;;;4938865;29;20267;-64
2022/05/24 12:54:57;;;;;;;;;;;27.40;50.40;;;;;;4939483;29;20371;-62
2022/05/24 12:57:28;;;;;;;;;;;27.40;49.60;;;;;;4938089;29;20009;-61
2022/05/24 12:59:58;;;;;;;;;;;27.50;49.60;;;;;;4937255;29;19919;-60
2022/05/24 13:02:35;;;;;;;;;;;27.50;49.80;;;;;;4937132;29;20359;-62
2022/05/24 13:05:07;;;;;;;;;;;27.50;50.20;;;;;;4937098;29;19918;-61
2022/05/24 13:07:35;;;;;;;;;;;27.50;50.60;;;;;;4937442;29;20020;-62
2022/05/24 13:10:02;;;;;;;;;;;27.50;49.60;;;;;;4937258;29;19911;-62
2022/05/24 13:12:28;;;;;;;;;;;27.50;50.50;;;;;;4937335;29;19911;-63
2022/05/24 13:15:01;;;;;;;;;;;27.50;50.20;;;;;;4937450;29;19911;-65
2022/05/24 13:17:28;;;;;;;;;;;27.50;49.60;;;;;;4944867;29;20112;-63
2022/05/24 13:19:53;;;;;;;;;;;27.50;50.30;;;;;;4929934;29;19918;-63
2022/05/24 13:22:20;;;;;;;;;;;27.50;49.40;;;;;;4948452;29;20374;-63
2022/05/24 13:24:51;;;;;;;;;;;27.40;50.10;;;;;;4946623;29;20404;-62
2022/05/24 13:27:16;;;;;;;;;;;27.30;50.70;;;;;;4939866;29;19910;-63
2022/05/24 13:35:11;;;;;;;;;;;27.20;50.00;;;;;;4943986;29;20357;-68
2022/05/24 13:37:50;;;;;;;;;;;27.30;50.60;;;;;;4946259;29;19910;-70
2022/05/24 13:40:15;;;;;;;;;;;27.30;51.10;;;;;;4943521;29;19918;-71
2022/05/24 13:42:54;;;;;;;;;;;27.30;51.10;;;;;;4944375;28;20295;-65
2022/05/24 13:45:22;;;;;;;;;;;27.30;51.50;;;;;;4944804;29;19926;-62
2022/05/24 13:47:48;;;;;;;;;;;27.30;51.60;;;;;;4944932;29;20266;-62
2022/05/24 13:50:22;;;;;;;;;;;27.10;50.90;;;;;;4946385;29;19910;-64
2022/05/24 13:52:53;;;;;;;;;;;27.10;50.80;;;;;;4944194;29;19957;-64
2022/05/24 13:55:21;;;;;;;;;;;27.00;52.50;;;;;;4941013;29;20383;-62
2022/05/24 13:57:57;;;;;;;;;;;27.30;51.80;;;;;;4941123;29;19910;-64
2022/05/24 14:00:25;;;;;;;;;;;27.30;50.90;;;;;;4937643;29;19919;-62
2022/05/24 14:03:09;;;;;;;;;;;27.30;51.20;;;;;;4937849;29;19911;-61
2022/05/24 14:05:35;;;;;;;;;;;27.30;50.70;;;;;;4952403;29;20294;-61
2022/05/24 14:08:01;;;;;;;;;;;26.80;51.30;;;;;;4939219;29;19949;-63
2022/05/24 14:10:28;;;;;;;;;;;26.90;52.40;;;;;;4946304;29;19985;-63
2022/05/24 14:12:53;;;;;;;;;;;26.80;52.60;;;;;;4943062;29;20295;-64
2022/05/24 14:15:19;;;;;;;;;;;26.50;53.20;;;;;;4946364;29;19934;-64
2022/05/24 14:17:44;;;;;;;;;;;26.80;53.80;;;;;;4938252;29;19910;-65
2022/05/24 14:20:10;;;;;;;;;;;27.00;52.20;;;;;;4934599;29;19927;-71
2022/05/24 14:22:36;;;;;;;;;;;27.10;51.90;;;;;;4935571;29;20336;-71
2022/05/24 14:25:02;;;;;;;;;;;27.20;51.60;;;;;;4935858;29;19918;-69
2022/05/24 14:27:27;;;;;;;;;;;27.20;51.30;;;;;;4918552;29;20409;-76
2022/05/24 14:29:53;;;;;;;;;;;27.20;51.40;;;;;;4917228;29;19947;-74
2022/05/24 14:32:18;;;;;;;;;;;27.20;50.90;;;;;;4939780;29;19938;-73
2022/05/24 14:34:44;;;;;;;;;;;27.10;51.00;;;;;;4945636;29;20314;-75
2022/05/24 14:37:11;;;;;;;;;;;27.10;50.90;;;;;;4939380;29;19911;-74
2022/05/24 14:39:36;;;;;;;;;;;27.10;51.30;;;;;;4942455;29;19922;-74
2022/05/24 14:42:02;;;;;;;;;;;27.10;50.90;;;;;;4945781;29;19949;-71
2022/05/24 14:44:29;;;;;;;;;;;27.10;50.30;;;;;;4944291;29;19934;-74
2022/05/24 14:46:56;;;;;;;;;;;27.10;50.90;;;;;;4945069;29;19919;-70
2022/05/24 14:49:22;;;;;;;;;;;27.00;50.50;;;;;;4945875;29;20347;-77
2022/05/24 14:51:56;;;;;;;;;;;27.00;51.00;;;;;;4940871;29;19930;-73
2022/05/24 14:54:22;;;;;;;;;;;27.10;51.30;;;;;;4937408;29;20295;-74
2022/05/24 14:56:48;;;;;;;;;;;27.00;51.20;;;;;;4939642;29;19921;-70
2022/05/24 14:59:14;;;;;;;;;;;27.00;51.40;;;;;;4939662;29;19922;-69
2022/05/24 15:01:41;;;;;;;;;;;27.00;51.70;;;;;;4939368;29;19911;-73
2022/05/24 15:04:08;;;;;;;;;;;27.00;52.10;;;;;;4939141;29;19970;-72
2022/05/24 15:06:37;;;;;;;;;;;27.00;52.10;;;;;;4939482;29;19911;-71